createdAt,value
2018-05-29T00:00:25.155Z,18.11
2018-05-29T00:01:05.619Z,18.11
2018-05-29T00:02:04.157Z,18.05
2018-05-29T00:03:05.631Z,18.02
2018-05-29T00:04:04.156Z,18.02
2018-05-29T00:08:06.646Z,18.04
2018-05-29T00:09:07.359Z,18.09
2018-05-29T00:10:07.348Z,18.05
2018-05-29T00:11:07.848Z,18.04
2018-05-29T00:12:08.844Z,18.02
2018-05-29T00:13:07.200Z,18.05
2018-05-29T00:14:07.848Z,18.05
2018-05-29T00:15:07.472Z,18.02
2018-05-29T00:16:08.348Z,18.04
2018-05-29T00:17:08.348Z,17.95
2018-05-29T00:18:07.826Z,18.04
2018-05-29T00:19:08.848Z,17.86
2018-05-29T00:20:08.848Z,17.89
2018-05-29T00:21:08.848Z,18.04
2018-05-29T00:22:08.852Z,17.83
2018-05-29T00:23:09.348Z,17.84
2018-05-29T00:24:09.345Z,17.92
2018-05-29T00:25:09.351Z,17.87
2018-05-29T00:26:09.355Z,17.92
2018-05-29T00:29:02.106Z,17.91
2018-05-29T00:29:41.113Z,17.81
2018-05-29T00:30:41.111Z,17.81
2018-05-29T00:31:41.611Z,17.86
2018-05-29T00:32:43.088Z,17.84
2018-05-29T00:33:41.611Z,17.80
2018-05-29T00:34:41.610Z,17.77
2018-05-29T00:35:42.111Z,17.77
2018-05-29T00:36:42.111Z,17.73
2018-05-29T00:37:41.494Z,17.79
2018-05-29T00:38:42.112Z,17.74
2018-05-29T00:40:03.618Z,17.81
2018-05-29T00:40:42.620Z,17.80
2018-05-29T00:41:42.611Z,17.77
2018-05-29T00:43:03.613Z,17.81
2018-05-29T00:43:42.212Z,17.84
2018-05-29T00:44:43.111Z,17.86
2018-05-29T00:45:44.587Z,17.76
2018-05-29T00:46:43.113Z,17.77
2018-05-29T00:47:43.615Z,17.86
2018-05-29T00:48:43.615Z,17.79
2018-05-29T00:49:43.622Z,17.79
2018-05-29T00:50:43.611Z,17.77
2018-05-29T00:51:44.111Z,17.77
2018-05-29T00:52:45.591Z,17.80
2018-05-29T00:53:44.111Z,17.79
2018-05-29T00:54:45.552Z,17.83
2018-05-29T00:57:36.819Z,17.74
2018-05-29T00:58:15.835Z,17.74
2018-05-29T00:59:15.829Z,17.79
2018-05-29T01:01:47.584Z,17.74
2018-05-29T01:02:49.052Z,17.73
2018-05-29T01:03:47.028Z,17.71
2018-05-29T01:04:48.095Z,17.71
2018-05-29T01:06:09.094Z,17.60
2018-05-29T01:07:09.099Z,17.60
2018-05-29T01:07:48.092Z,17.63
2018-05-29T01:08:48.115Z,17.81
2018-05-29T01:11:19.137Z,17.73
2018-05-29T01:12:19.867Z,17.73
2018-05-29T01:13:19.867Z,17.73
2018-05-29T01:14:21.299Z,17.68
2018-05-29T01:15:21.365Z,17.74
2018-05-29T01:16:20.372Z,17.65
2018-05-29T01:17:20.371Z,17.73
2018-05-29T01:18:20.867Z,17.65
2018-05-29T01:19:20.867Z,17.68
2018-05-29T01:20:20.871Z,17.79
2018-05-29T01:21:20.875Z,17.66
2018-05-29T01:22:21.370Z,17.66
2018-05-29T01:23:21.368Z,17.68
2018-05-29T01:24:21.368Z,17.65
2018-05-29T01:25:21.369Z,17.60
2018-05-29T01:26:44.300Z,17.58
2018-05-29T01:27:21.866Z,17.62
2018-05-29T01:28:21.868Z,17.55
2018-05-29T01:29:21.868Z,17.58
2018-05-29T01:31:53.623Z,17.47
2018-05-29T01:32:53.630Z,17.47
2018-05-29T01:33:53.631Z,17.49
2018-05-29T01:34:54.130Z,17.46
2018-05-29T01:35:55.563Z,17.35
2018-05-29T01:36:54.133Z,17.36
2018-05-29T01:37:53.630Z,17.38
2018-05-29T01:38:57.563Z,17.39
2018-05-29T01:40:15.631Z,17.40
2018-05-29T01:40:54.634Z,17.49
2018-05-29T01:42:15.635Z,17.42
2018-05-29T01:42:55.130Z,17.45
2018-05-29T01:43:55.132Z,17.43
2018-05-29T01:44:54.481Z,17.53
2018-05-29T01:45:55.131Z,17.55
2018-05-29T01:47:18.099Z,17.51
2018-05-29T01:47:54.852Z,17.54
2018-05-29T01:49:16.631Z,17.53
2018-05-29T01:49:55.638Z,17.55
2018-05-29T01:52:48.396Z,17.54
2018-05-29T01:53:27.402Z,17.53
2018-05-29T01:54:26.880Z,17.53
2018-05-29T01:55:27.938Z,17.49
2018-05-29T01:56:27.902Z,17.49
2018-05-29T01:57:27.901Z,17.45
2018-05-29T01:58:27.902Z,17.54
2018-05-29T01:59:27.905Z,17.38
2018-05-29T02:00:49.402Z,17.39
2018-05-29T02:01:34.406Z,17.36
2018-05-29T02:02:28.417Z,17.36
2018-05-29T02:03:28.402Z,17.24
2018-05-29T02:04:28.967Z,17.27
2018-05-29T02:05:30.347Z,17.27
2018-05-29T02:06:28.904Z,17.36
2018-05-29T02:07:29.903Z,17.35
2018-05-29T02:08:28.902Z,17.32
2018-05-29T02:09:29.411Z,17.28
2018-05-29T02:10:29.402Z,17.27
2018-05-29T02:11:50.404Z,17.25
2018-05-29T02:12:28.878Z,17.28
2018-05-29T02:13:29.902Z,17.22
2018-05-29T02:14:29.904Z,17.17
2018-05-29T02:15:29.901Z,17.22
2018-05-29T02:16:29.906Z,17.32
2018-05-29T02:17:30.404Z,17.35
2018-05-29T02:18:30.401Z,17.33
2018-05-29T02:19:30.405Z,17.28
2018-05-29T02:20:30.408Z,17.35
2018-05-29T02:21:30.045Z,17.24
2018-05-29T02:22:30.134Z,17.36
2018-05-29T02:23:30.901Z,17.32
2018-05-29T02:24:30.901Z,17.33
2018-05-29T02:25:52.408Z,17.25
2018-05-29T02:26:31.343Z,17.30
2018-05-29T02:27:54.402Z,17.09
2018-05-29T02:28:31.469Z,17.07
2018-05-29T02:29:31.402Z,17.15
2018-05-29T02:30:31.408Z,17.07
2018-05-29T02:31:31.903Z,17.09
2018-05-29T02:32:54.904Z,17.09
2018-05-29T02:33:31.900Z,17.15
2018-05-29T02:34:31.902Z,17.18
2018-05-29T02:35:32.402Z,17.09
2018-05-29T02:38:03.778Z,17.21
2018-05-29T02:39:03.785Z,17.12
2018-05-29T02:40:03.785Z,17.24
2018-05-29T02:41:06.292Z,17.21
2018-05-29T02:42:05.284Z,17.28
2018-05-29T02:43:04.292Z,17.14
2018-05-29T02:44:04.285Z,17.24
2018-05-29T02:46:57.041Z,17.17
2018-05-29T02:47:37.480Z,17.12
2018-05-29T02:48:36.048Z,17.10
2018-05-29T02:51:07.120Z,17.10
2018-05-29T02:52:07.839Z,17.09
2018-05-29T02:53:07.308Z,17.14
2018-05-29T02:54:07.409Z,17.18
2018-05-29T02:55:07.530Z,17.14
2018-05-29T02:56:08.389Z,17.10
2018-05-29T02:57:30.336Z,17.09
2018-05-29T02:58:09.292Z,17.09
2018-05-29T02:59:07.897Z,17.18
2018-05-29T03:00:30.809Z,17.20
2018-05-29T03:01:29.873Z,17.15
2018-05-29T03:02:30.799Z,17.20
2018-05-29T03:03:08.840Z,17.15
2018-05-29T03:04:09.340Z,17.14
2018-05-29T03:05:09.338Z,17.17
2018-05-29T03:06:09.340Z,17.10
2018-05-29T03:07:09.344Z,17.12
2018-05-29T03:08:09.837Z,17.18
2018-05-29T03:09:09.839Z,17.07
2018-05-29T03:10:09.839Z,17.22
2018-05-29T03:11:09.840Z,17.24
2018-05-29T03:13:41.607Z,17.09
2018-05-29T03:14:41.614Z,17.15
2018-05-29T03:15:41.609Z,17.15
2018-05-29T03:16:42.113Z,17.15
2018-05-29T03:17:42.117Z,17.15
2018-05-29T03:18:42.112Z,17.12
2018-05-29T03:19:42.113Z,17.09
2018-05-29T03:20:42.615Z,17.24
2018-05-29T03:21:42.625Z,17.18
2018-05-29T03:22:42.615Z,17.25
2018-05-29T03:23:42.612Z,17.25
2018-05-29T03:24:57.121Z,17.30
2018-05-29T03:26:04.112Z,17.27
2018-05-29T03:26:43.112Z,17.27
2018-05-29T03:28:04.151Z,17.22
2018-05-29T03:28:43.610Z,17.28
2018-05-29T03:30:04.613Z,17.28
2018-05-29T03:32:15.129Z,17.24
2018-05-29T03:33:15.135Z,17.27
2018-05-29T03:34:15.135Z,17.22
2018-05-29T03:35:15.639Z,17.21
2018-05-29T03:36:16.633Z,17.27
2018-05-29T03:37:15.637Z,17.27
2018-05-29T03:38:15.633Z,17.20
2018-05-29T03:39:16.135Z,17.12
2018-05-29T03:40:18.137Z,17.15
2018-05-29T03:41:18.132Z,17.15
2018-05-29T03:42:16.136Z,17.12
2018-05-29T03:43:17.594Z,17.09
2018-05-29T03:44:16.638Z,17.03
2018-05-29T03:45:16.635Z,17.12
2018-05-29T03:46:16.631Z,17.02
2018-05-29T03:47:17.141Z,17.14
2018-05-29T03:48:17.135Z,17.12
2018-05-29T03:49:17.135Z,17.14
2018-05-29T03:50:17.135Z,17.12
2018-05-29T03:51:17.664Z,17.14
2018-05-29T03:52:17.641Z,17.12
2018-05-29T03:53:17.639Z,17.14
2018-05-29T03:54:17.636Z,17.10
2018-05-29T03:55:18.146Z,17.17
2018-05-29T03:56:18.133Z,17.22
2018-05-29T03:57:18.134Z,17.24
2018-05-29T03:58:18.145Z,17.10
2018-05-29T03:59:32.718Z,17.05
2018-05-29T04:00:44.095Z,17.15
2018-05-29T04:01:18.644Z,17.12
2018-05-29T04:02:39.639Z,17.06
2018-05-29T04:03:18.635Z,17.06
2018-05-29T04:04:19.135Z,17.06
2018-05-29T04:05:19.137Z,17.07
2018-05-29T04:06:19.136Z,17.03
2018-05-29T04:07:19.137Z,17.05
2018-05-29T04:08:19.635Z,17.15
2018-05-29T04:09:19.688Z,17.03
2018-05-29T04:10:19.635Z,17.10
2018-05-29T04:11:19.148Z,17.14
2018-05-29T04:12:22.137Z,17.09
2018-05-29T04:13:20.136Z,17.05
2018-05-29T04:14:20.137Z,17.21
2018-05-29T04:15:20.136Z,17.15
2018-05-29T04:16:46.568Z,17.12
2018-05-29T04:17:20.634Z,17.10
2018-05-29T04:18:42.634Z,17.20
2018-05-29T04:19:20.639Z,17.12
2018-05-29T04:20:21.137Z,17.12
2018-05-29T04:21:27.135Z,17.15
2018-05-29T04:22:21.144Z,17.21
2018-05-29T04:23:42.142Z,17.28
2018-05-29T04:24:24.067Z,17.32
2018-05-29T04:26:53.014Z,17.40
2018-05-29T04:27:53.017Z,17.36
2018-05-29T04:28:53.017Z,17.42
2018-05-29T04:29:54.516Z,17.47
2018-05-29T04:30:53.521Z,17.47
2018-05-29T04:31:52.867Z,17.45
2018-05-29T04:33:14.514Z,17.47
2018-05-29T04:33:54.017Z,17.53
2018-05-29T04:34:54.017Z,17.55
2018-05-29T04:35:54.036Z,17.60
2018-05-29T04:36:54.017Z,17.68
2018-05-29T04:37:54.519Z,17.62
2018-05-29T04:38:56.487Z,17.68
2018-05-29T04:39:54.522Z,17.66
2018-05-29T04:41:17.516Z,17.65
2018-05-29T04:43:26.309Z,17.58
2018-05-29T04:44:26.290Z,17.74
2018-05-29T04:45:47.289Z,17.80
2018-05-29T04:47:58.559Z,17.84
2018-05-29T04:49:19.565Z,17.79
2018-05-29T04:49:58.565Z,17.83
2018-05-29T04:51:25.565Z,17.86
2018-05-29T04:51:58.573Z,17.87
2018-05-29T04:54:29.607Z,17.99
2018-05-29T04:55:30.331Z,18.04
2018-05-29T04:56:51.337Z,18.05
2018-05-29T04:57:51.852Z,18.11
2018-05-29T04:58:51.837Z,18.04
2018-05-29T04:59:30.836Z,18.05
2018-05-29T05:00:32.769Z,18.02
2018-05-29T05:01:30.382Z,18.02
2018-05-29T05:02:52.371Z,18.05
2018-05-29T05:03:30.599Z,18.21
2018-05-29T05:04:31.346Z,18.21
2018-05-29T05:05:31.338Z,18.26
2018-05-29T05:06:52.834Z,18.32
2018-05-29T05:07:33.837Z,18.31
2018-05-29T05:08:52.851Z,18.36
2018-05-29T05:09:31.836Z,18.47
2018-05-29T05:12:03.605Z,18.44
2018-05-29T05:13:04.554Z,18.32
2018-05-29T05:14:03.610Z,18.38
2018-05-29T05:16:35.366Z,18.57
2018-05-29T05:17:56.374Z,18.57
2018-05-29T05:18:35.373Z,18.68
2018-05-29T05:21:06.692Z,18.89
2018-05-29T05:23:38.955Z,18.97
2018-05-29T05:24:38.960Z,18.96
2018-05-29T05:25:38.958Z,19.09
2018-05-29T05:26:39.456Z,18.99
2018-05-29T05:27:39.464Z,18.94
2018-05-29T05:28:39.507Z,18.99
2018-05-29T05:29:39.462Z,18.97
2018-05-29T05:30:39.978Z,19.05
2018-05-29T05:32:01.957Z,19.07
2018-05-29T05:32:39.960Z,19.16
2018-05-29T05:33:39.961Z,19.16
2018-05-29T05:34:40.458Z,19.27
2018-05-29T05:35:39.691Z,19.21
2018-05-29T05:36:40.455Z,19.27
2018-05-29T05:37:40.459Z,19.30
2018-05-29T05:38:40.959Z,19.34
2018-05-29T05:39:41.918Z,19.34
2018-05-29T05:40:40.959Z,19.43
2018-05-29T05:41:41.957Z,19.39
2018-05-29T05:43:03.412Z,19.45
2018-05-29T05:43:41.459Z,19.45
2018-05-29T05:44:42.413Z,19.43
2018-05-29T05:45:41.458Z,19.53
2018-05-29T05:46:41.960Z,19.50
2018-05-29T05:47:41.963Z,19.52
2018-05-29T05:48:41.305Z,19.61
2018-05-29T05:49:41.959Z,19.65
2018-05-29T05:50:42.460Z,19.72
2018-05-29T05:51:42.466Z,19.71
2018-05-29T05:52:42.498Z,19.75
2018-05-29T05:53:42.460Z,19.72
2018-05-29T05:54:44.959Z,19.85
2018-05-29T05:55:48.961Z,19.92
2018-05-29T05:56:42.959Z,19.90
2018-05-29T05:57:42.445Z,20.04
2018-05-29T06:01:46.168Z,20.15
2018-05-29T06:02:46.175Z,20.25
2018-05-29T06:04:00.679Z,20.25
2018-05-29T06:06:17.994Z,20.41
2018-05-29T06:07:17.960Z,20.53
2018-05-29T06:08:17.955Z,20.50
2018-05-29T06:09:18.469Z,20.56
2018-05-29T06:10:18.494Z,20.66
2018-05-29T06:11:17.812Z,20.68
2018-05-29T06:12:18.457Z,20.68
2018-05-29T06:13:19.958Z,20.76
2018-05-29T06:14:18.959Z,20.81
2018-05-29T06:15:18.958Z,20.76
2018-05-29T06:16:18.473Z,20.85
2018-05-29T06:17:19.463Z,20.83
2018-05-29T06:18:40.457Z,20.96
2018-05-29T06:19:19.459Z,21.08
2018-05-29T06:20:19.462Z,21.21
2018-05-29T06:21:47.921Z,21.21
2018-05-29T06:22:19.958Z,21.31
2018-05-29T06:23:41.309Z,21.37
2018-05-29T06:24:19.992Z,21.38
2018-05-29T06:25:20.458Z,21.59
2018-05-29T06:26:20.457Z,21.64
2018-05-29T06:27:19.806Z,21.67
2018-05-29T06:28:19.910Z,21.75
2018-05-29T06:29:20.965Z,21.83
2018-05-29T06:30:34.963Z,21.81
2018-05-29T06:31:20.961Z,21.91
2018-05-29T06:32:20.958Z,21.94
2018-05-29T06:34:56.168Z,22.05
2018-05-29T06:35:52.736Z,21.99
2018-05-29T06:36:52.735Z,22.12
2018-05-29T06:37:53.239Z,22.14
2018-05-29T06:39:07.236Z,22.20
2018-05-29T06:39:53.235Z,22.29
2018-05-29T06:40:53.236Z,22.38
2018-05-29T06:41:53.739Z,22.39
2018-05-29T06:42:53.740Z,22.59
2018-05-29T06:44:17.667Z,22.52
2018-05-29T06:44:53.788Z,22.59
2018-05-29T06:46:14.736Z,22.61
2018-05-29T06:51:28.887Z,22.79
2018-05-29T06:52:28.924Z,22.84
2018-05-29T06:53:28.895Z,23.00
2018-05-29T06:54:28.498Z,23.04
2018-05-29T06:55:28.627Z,23.15
2018-05-29T06:56:28.725Z,23.12
2018-05-29T06:57:29.395Z,23.15
2018-05-29T06:58:29.895Z,23.22
2018-05-29T06:59:29.896Z,23.26
2018-05-29T07:00:29.892Z,23.26
2018-05-29T07:01:29.376Z,23.39
2018-05-29T07:02:31.827Z,23.41
2018-05-29T07:03:51.410Z,23.41
2018-05-29T07:04:31.829Z,23.56
2018-05-29T07:07:01.392Z,23.54
2018-05-29T07:08:04.109Z,23.56
2018-05-29T07:09:01.596Z,23.71
2018-05-29T07:10:23.611Z,23.69
2018-05-29T07:11:01.857Z,23.67
2018-05-29T07:12:02.604Z,23.77
2018-05-29T07:13:02.604Z,23.71
2018-05-29T07:14:24.104Z,23.82
2018-05-29T07:15:03.104Z,23.84
2018-05-29T07:16:03.104Z,24.02
2018-05-29T07:17:03.602Z,23.97
2018-05-29T07:18:02.703Z,24.05
2018-05-29T07:19:03.620Z,24.06
2018-05-29T07:20:06.036Z,24.14
2018-05-29T07:21:03.077Z,24.06
2018-05-29T07:25:06.080Z,24.31
2018-05-29T07:26:27.174Z,24.33
2018-05-29T07:27:07.314Z,24.42
2018-05-29T07:28:06.424Z,24.42
2018-05-29T07:29:09.311Z,24.45
2018-05-29T07:30:07.307Z,24.55
2018-05-29T07:31:07.307Z,24.82
2018-05-29T07:34:04.595Z,24.92
2018-05-29T07:36:11.023Z,24.97
2018-05-29T07:37:11.032Z,24.86
2018-05-29T07:38:32.032Z,24.89
2018-05-29T07:40:42.812Z,25.08
2018-05-29T07:41:42.816Z,25.09
2018-05-29T07:42:42.817Z,25.24
2018-05-29T07:43:42.453Z,25.19
2018-05-29T07:44:43.314Z,25.27
2018-05-29T07:45:42.671Z,25.29
2018-05-29T07:46:42.781Z,25.44
2018-05-29T07:47:43.816Z,25.51
2018-05-29T07:48:43.820Z,25.53
2018-05-29T07:49:43.172Z,25.53
2018-05-29T07:51:04.822Z,25.53
2018-05-29T07:52:04.467Z,25.53
2018-05-29T07:52:44.317Z,25.69
2018-05-29T07:53:44.317Z,25.61
2018-05-29T07:55:07.248Z,25.75
2018-05-29T07:56:07.825Z,25.86
2018-05-29T07:58:43.228Z,26.03
2018-05-29T07:59:16.244Z,26.03
2018-05-29T08:02:09.052Z,26.13
2018-05-29T08:02:48.058Z,26.13
2018-05-29T08:04:09.060Z,26.12
2018-05-29T08:04:54.558Z,26.27
2018-05-29T08:05:48.558Z,26.35
2018-05-29T08:07:09.558Z,26.34
2018-05-29T08:07:48.570Z,26.32
2018-05-29T08:09:10.057Z,26.20
2018-05-29T08:09:49.060Z,26.24
2018-05-29T08:11:12.058Z,26.39
2018-05-29T08:12:10.077Z,26.44
2018-05-29T08:12:57.030Z,26.50
2018-05-29T08:13:49.560Z,26.57
2018-05-29T08:14:50.518Z,26.54
2018-05-29T08:15:49.555Z,26.61
2018-05-29T08:16:50.058Z,26.60
2018-05-29T08:18:11.059Z,26.71
2018-05-29T08:18:51.067Z,26.73
2018-05-29T08:19:51.036Z,26.68
2018-05-29T08:21:11.559Z,26.50
2018-05-29T08:21:50.927Z,26.68
2018-05-29T08:22:50.577Z,26.71
2018-05-29T08:23:50.566Z,26.60
2018-05-29T08:24:51.058Z,26.50
2018-05-29T08:26:19.084Z,26.57
2018-05-29T08:26:51.059Z,26.64
2018-05-29T08:27:51.059Z,26.71
2018-05-29T08:28:53.558Z,26.83
2018-05-29T08:29:51.558Z,26.91
2018-05-29T08:30:51.565Z,27.01
2018-05-29T08:31:51.561Z,27.02
2018-05-29T08:32:52.063Z,27.12
2018-05-29T08:33:52.058Z,27.18
2018-05-29T08:34:52.065Z,27.24
2018-05-29T08:35:56.491Z,27.25
2018-05-29T08:36:54.561Z,27.25
2018-05-29T08:37:52.567Z,27.34
2018-05-29T08:39:13.565Z,27.34
2018-05-29T08:39:52.559Z,27.35
2018-05-29T08:41:20.064Z,27.39
2018-05-29T08:41:53.059Z,27.43
2018-05-29T08:42:52.416Z,27.42
2018-05-29T08:43:53.056Z,27.38
2018-05-29T08:44:59.560Z,27.28
2018-05-29T08:45:52.801Z,27.21
2018-05-29T08:46:53.560Z,27.28
2018-05-29T08:47:53.561Z,27.39
2018-05-29T08:50:25.342Z,27.58
2018-05-29T08:51:24.710Z,27.53
2018-05-29T08:52:25.347Z,27.52
2018-05-29T08:53:46.857Z,27.58
2018-05-29T08:54:25.855Z,27.48
2018-05-29T08:55:28.281Z,27.55
2018-05-29T08:56:25.320Z,27.46
2018-05-29T08:59:11.613Z,27.59
2018-05-29T09:01:31.646Z,27.80
2018-05-29T09:02:50.659Z,27.78
2018-05-29T09:03:50.654Z,27.80
2018-05-29T09:04:43.654Z,27.69
2018-05-29T09:05:51.162Z,27.66
2018-05-29T09:06:30.154Z,27.65
2018-05-29T09:07:44.154Z,27.63
2018-05-29T09:08:30.654Z,27.77
2018-05-29T09:09:30.654Z,27.90
2018-05-29T09:10:30.660Z,27.99
2018-05-29T09:11:30.654Z,28.05
2018-05-29T09:12:51.656Z,27.98
2018-05-29T09:13:30.265Z,27.96
2018-05-29T09:14:37.162Z,27.96
2018-05-29T09:15:51.524Z,27.91
2018-05-29T09:16:31.155Z,27.99
2018-05-29T09:17:31.657Z,28.03
2018-05-29T09:18:54.088Z,27.93
2018-05-29T09:19:31.654Z,27.93
2018-05-29T09:20:52.660Z,28.05
2018-05-29T09:21:53.178Z,28.02
2018-05-29T09:24:23.791Z,28.09
2018-05-29T09:26:16.468Z,28.21
2018-05-29T09:27:16.507Z,28.30
2018-05-29T09:28:37.438Z,28.38
2018-05-29T09:29:16.940Z,28.46
2018-05-29T09:30:16.941Z,28.55
2018-05-29T09:31:17.870Z,28.39
2018-05-29T09:32:17.371Z,28.39
2018-05-29T09:34:48.674Z,28.50
2018-05-29T09:36:09.681Z,28.48
2018-05-29T09:36:51.319Z,28.43
2018-05-29T09:37:51.189Z,28.40
2018-05-29T09:40:20.598Z,28.32
2018-05-29T09:41:20.970Z,28.32
2018-05-29T09:42:27.129Z,28.43
2018-05-29T09:43:45.525Z,28.45
2018-05-29T09:44:20.347Z,28.45
2018-05-29T09:45:21.102Z,28.58
2018-05-29T09:46:21.091Z,28.58
2018-05-29T09:47:41.788Z,28.72
2018-05-29T09:50:20.017Z,28.89
2018-05-29T09:50:53.009Z,28.82
2018-05-29T09:51:53.168Z,28.87
2018-05-29T09:52:55.577Z,28.91
2018-05-29T09:53:57.445Z,29.03
2018-05-29T09:54:53.512Z,29.02
2018-05-29T09:55:53.940Z,29.10
2018-05-29T09:56:54.016Z,29.12
2018-05-29T09:57:54.114Z,29.21
2018-05-29T09:58:54.054Z,29.20
2018-05-29T09:59:54.056Z,29.18
2018-05-29T10:00:54.564Z,29.18
2018-05-29T10:01:54.508Z,29.11
2018-05-29T10:02:53.866Z,29.12
2018-05-29T10:03:56.009Z,29.08
2018-05-29T10:05:09.011Z,29.20
2018-05-29T10:06:18.015Z,29.30
2018-05-29T10:06:54.374Z,29.20
2018-05-29T10:07:54.482Z,29.20
2018-05-29T10:08:55.508Z,29.14
2018-05-29T10:09:56.963Z,29.20
2018-05-29T10:10:55.515Z,29.18
2018-05-29T10:11:55.510Z,29.18
2018-05-29T10:12:55.122Z,29.20
2018-05-29T10:14:17.941Z,29.42
2018-05-29T10:14:55.370Z,29.39
2018-05-29T10:15:56.010Z,29.48
2018-05-29T10:17:16.600Z,29.62
2018-05-29T10:17:55.711Z,29.71
2018-05-29T10:18:56.509Z,29.81
2018-05-29T10:20:10.510Z,29.84
2018-05-29T10:21:18.021Z,29.82
2018-05-29T10:23:28.426Z,29.78
2018-05-29T10:25:28.918Z,29.58
2018-05-29T10:26:28.448Z,29.55
2018-05-29T10:27:28.420Z,29.70
2018-05-29T10:28:28.419Z,29.81
2018-05-29T10:29:49.418Z,29.88
2018-05-29T10:30:28.919Z,30.00
2018-05-29T10:31:28.918Z,30.13
2018-05-29T10:32:28.920Z,30.21
2018-05-29T10:33:28.900Z,30.21
2018-05-29T10:34:29.479Z,30.11
2018-05-29T10:35:29.419Z,30.19
2018-05-29T10:36:29.419Z,30.28
2018-05-29T10:37:29.919Z,30.25
2018-05-29T10:38:29.920Z,30.28
2018-05-29T10:39:29.921Z,30.38
2018-05-29T10:40:29.960Z,30.45
2018-05-29T10:41:29.921Z,30.40
2018-05-29T10:42:30.424Z,30.36
2018-05-29T10:43:30.463Z,30.40
2018-05-29T10:44:30.420Z,30.45
2018-05-29T10:45:30.416Z,30.59
2018-05-29T10:46:30.921Z,30.48
2018-05-29T10:47:30.921Z,30.59
2018-05-29T10:48:30.788Z,30.61
2018-05-29T10:49:30.922Z,30.57
2018-05-29T10:50:31.421Z,30.78
2018-05-29T10:51:31.428Z,30.75
2018-05-29T10:52:31.477Z,30.70
2018-05-29T10:53:31.421Z,30.78
2018-05-29T10:54:32.919Z,30.67
2018-05-29T10:55:31.925Z,30.67
2018-05-29T10:56:31.927Z,30.61
2018-05-29T10:57:31.922Z,30.63
2018-05-29T10:58:32.417Z,30.60
2018-05-29T10:59:32.167Z,30.45
2018-05-29T11:00:32.425Z,30.40
2018-05-29T11:01:32.921Z,30.34
2018-05-29T11:02:32.921Z,30.51
2018-05-29T11:03:32.923Z,30.49
2018-05-29T11:04:32.931Z,30.57
2018-05-29T11:05:32.943Z,30.67
2018-05-29T11:06:34.858Z,30.68
2018-05-29T11:07:33.429Z,30.72
2018-05-29T11:08:33.422Z,30.78
2018-05-29T11:09:33.424Z,30.96
2018-05-29T11:10:34.921Z,30.97
2018-05-29T11:11:33.920Z,31.13
2018-05-29T11:12:33.807Z,31.13
2018-05-29T11:13:33.924Z,31.30
2018-05-29T11:14:34.433Z,31.05
2018-05-29T11:15:34.424Z,31.16
2018-05-29T11:16:34.422Z,31.30
2018-05-29T11:17:34.431Z,31.34
2018-05-29T11:18:34.580Z,31.19
2018-05-29T11:19:34.937Z,30.98
2018-05-29T11:20:34.926Z,31.03
2018-05-29T11:21:34.931Z,31.04
2018-05-29T11:22:35.423Z,31.12
2018-05-29T11:23:35.424Z,31.19
2018-05-29T11:24:35.430Z,31.31
2018-05-29T11:25:35.434Z,31.28
2018-05-29T11:28:07.728Z,31.30
2018-05-29T11:30:58.254Z,31.71
2018-05-29T11:32:19.787Z,31.72
2018-05-29T11:32:56.790Z,31.71
2018-05-29T11:33:56.282Z,31.62
2018-05-29T11:35:18.287Z,31.72
2018-05-29T11:37:49.726Z,31.78
2018-05-29T11:38:49.734Z,31.69
2018-05-29T11:39:28.730Z,31.87
2018-05-29T11:40:43.230Z,31.95
2018-05-29T11:41:50.228Z,31.97
2018-05-29T11:44:00.765Z,31.90
2018-05-29T11:45:00.770Z,31.97
2018-05-29T11:46:00.772Z,32.07
2018-05-29T11:47:02.817Z,32.17
2018-05-29T11:48:02.705Z,32.16
2018-05-29T11:49:01.272Z,32.13
2018-05-29T11:50:01.274Z,31.95
2018-05-29T11:51:01.772Z,31.95
2018-05-29T11:52:01.775Z,31.90
2018-05-29T11:53:01.778Z,31.99
2018-05-29T11:54:01.778Z,32.02
2018-05-29T11:55:01.384Z,32.02
2018-05-29T11:56:03.743Z,31.95
2018-05-29T11:57:04.272Z,31.91
2018-05-29T11:58:02.283Z,31.87
2018-05-29T11:59:02.773Z,31.88
2018-05-29T12:00:25.775Z,31.75
2018-05-29T12:01:03.779Z,31.76
2018-05-29T12:02:02.774Z,31.82
2018-05-29T12:03:05.277Z,31.90
2018-05-29T12:04:02.537Z,31.87
2018-05-29T12:05:03.273Z,31.85
2018-05-29T12:06:03.273Z,31.97
2018-05-29T12:07:03.774Z,31.98
2018-05-29T12:08:03.773Z,31.85
2018-05-29T12:09:04.772Z,31.85
2018-05-29T12:10:24.774Z,31.64
2018-05-29T12:11:05.707Z,31.72
2018-05-29T12:12:24.460Z,31.87
2018-05-29T12:13:04.279Z,31.76
2018-05-29T12:15:35.796Z,31.91
2018-05-29T12:16:56.811Z,31.69
2018-05-29T12:17:35.817Z,31.71
2018-05-29T12:18:36.304Z,31.75
2018-05-29T12:19:36.304Z,31.76
2018-05-29T12:20:36.306Z,31.68
2018-05-29T12:21:35.792Z,31.75
2018-05-29T12:22:36.811Z,31.65
2018-05-29T12:23:36.808Z,31.68
2018-05-29T12:24:39.740Z,31.65
2018-05-29T12:32:25.798Z,31.68
2018-05-29T12:33:24.307Z,31.41
2018-05-29T12:37:28.011Z,30.57
2018-05-29T12:38:30.466Z,30.60
2018-05-29T12:39:27.452Z,30.51
2018-05-29T12:40:30.519Z,30.60
2018-05-29T12:41:29.994Z,30.59
2018-05-29T12:42:48.758Z,30.40
2018-05-29T12:43:28.521Z,30.28
2018-05-29T12:44:30.456Z,30.32
2018-05-29T12:45:29.019Z,30.26
2018-05-29T12:46:32.453Z,30.16
2018-05-29T12:47:31.951Z,30.10
2018-05-29T12:48:29.026Z,29.91
2018-05-29T12:49:29.525Z,29.91
2018-05-29T12:50:30.958Z,29.78
2018-05-29T12:51:29.518Z,29.76
2018-05-29T12:52:29.521Z,29.55
2018-05-29T12:53:51.019Z,29.36
2018-05-29T12:54:30.054Z,29.35
2018-05-29T12:55:30.045Z,29.20
2018-05-29T12:56:51.141Z,28.97
2018-05-29T12:57:33.517Z,28.77
2018-05-29T12:58:32.520Z,28.51
2018-05-29T12:59:30.523Z,28.33
2018-05-29T13:00:30.519Z,28.05
2018-05-29T13:03:02.296Z,27.11
2018-05-29T13:04:02.346Z,27.01
2018-05-29T13:05:02.807Z,26.79
2018-05-29T13:06:02.812Z,26.47
2018-05-29T13:07:02.804Z,26.34
2018-05-29T13:08:02.802Z,26.06
2018-05-29T13:09:02.295Z,25.78
2018-05-29T13:10:03.303Z,25.78
2018-05-29T13:11:03.335Z,25.38
2018-05-29T13:12:03.304Z,25.12
2018-05-29T13:13:03.312Z,24.94
2018-05-29T13:14:02.921Z,24.45
2018-05-29T13:15:03.851Z,24.30
2018-05-29T13:16:04.743Z,23.92
2018-05-29T13:17:03.234Z,23.42
2018-05-29T13:18:04.304Z,23.26
2018-05-29T13:19:03.417Z,23.07
2018-05-29T13:21:35.666Z,22.76
2018-05-29T13:22:35.083Z,22.66
2018-05-29T13:23:35.677Z,22.41
2018-05-29T13:24:59.112Z,22.20
2018-05-29T13:25:36.173Z,21.99
2018-05-29T13:26:38.183Z,21.81
2018-05-29T13:27:36.676Z,21.74
2018-05-29T13:28:35.779Z,21.70
2018-05-29T13:29:36.671Z,21.61
2018-05-29T13:30:36.677Z,21.55
2018-05-29T13:31:36.697Z,21.55
2018-05-29T13:34:07.736Z,21.31
2018-05-29T13:35:07.872Z,21.30
2018-05-29T13:36:14.470Z,21.21
2018-05-29T13:37:09.968Z,21.09
2018-05-29T13:38:08.225Z,21.09
2018-05-29T13:39:08.989Z,21.00
2018-05-29T13:41:42.062Z,20.82
2018-05-29T13:42:40.619Z,20.81
2018-05-29T13:43:44.104Z,20.83
2018-05-29T13:44:41.105Z,20.83
2018-05-29T13:45:42.105Z,20.90
2018-05-29T13:46:41.105Z,20.79
2018-05-29T13:47:41.113Z,20.78
2018-05-29T13:48:55.608Z,20.68
2018-05-29T13:49:41.605Z,20.66
2018-05-29T13:50:40.962Z,20.64
2018-05-29T13:51:41.608Z,20.56
2018-05-29T13:52:56.112Z,20.53
2018-05-29T13:53:42.109Z,20.41
2018-05-29T13:54:42.106Z,20.50
2018-05-29T13:56:03.107Z,20.41
2018-05-29T13:56:42.608Z,20.30
2018-05-29T13:57:44.080Z,20.35
2018-05-29T13:58:41.935Z,20.26
2018-05-29T13:59:42.616Z,20.33
2018-05-29T14:00:50.561Z,20.33
2018-05-29T14:01:45.104Z,20.34
2018-05-29T14:02:43.113Z,20.44
2018-05-29T14:03:43.119Z,20.37
2018-05-29T14:05:04.542Z,20.37
2018-05-29T14:07:14.981Z,20.37
2018-05-29T14:08:35.993Z,20.42
2018-05-29T14:09:14.986Z,20.54
2018-05-29T14:10:21.487Z,20.54
2018-05-29T14:11:15.490Z,20.56
2018-05-29T14:12:15.487Z,20.51
2018-05-29T14:13:15.535Z,20.57
2018-05-29T14:14:15.084Z,20.50
2018-05-29T14:15:15.985Z,20.56
2018-05-29T14:16:15.994Z,20.53
2018-05-29T14:17:15.987Z,20.51
2018-05-29T14:18:16.487Z,20.51
2018-05-29T14:19:16.487Z,20.58
2018-05-29T14:20:16.487Z,20.54
2018-05-29T14:21:16.488Z,20.56
2018-05-29T14:22:16.987Z,20.56
2018-05-29T14:23:16.987Z,20.60
2018-05-29T14:24:16.989Z,20.53
2018-05-29T14:25:16.999Z,20.54
2018-05-29T14:26:16.596Z,20.54
2018-05-29T14:27:23.492Z,20.53
2018-05-29T14:28:16.844Z,20.54